Time;durP1;ratioP1;P1;durP2;ratioP2;P2;SDS_P1;SDS_P2;PMS_P1;PMS_P2;Temp;Humidity;BMP_temperature;BMP_pressure;BME280_temperature;BME280_humidity;BME280_pressure;Samples;Min_cycle;Max_cycle;Signal;HPM_P1;HPM_P2
2022/03/26 00:02:04;;;;;;;70.00;32.33;;;7.90;94.10;;;;;;4980004;28;20057;-55
2022/03/26 00:04:32;;;;;;;66.53;31.55;;;7.90;94.20;;;;;;4976454;28;20050;-56
2022/03/26 00:06:59;;;;;;;75.13;32.85;;;7.90;94.40;;;;;;4983953;28;20054;-53
2022/03/26 00:09:25;;;;;;;67.63;33.72;;;7.70;95.00;;;;;;4983515;28;20116;-55
2022/03/26 00:11:52;;;;;;;67.70;32.60;;;7.70;95.10;;;;;;4975022;28;20592;-54
2022/03/26 00:14:19;;;;;;;71.75;31.80;;;7.60;95.30;;;;;;4967384;28;20141;-55
2022/03/26 00:16:46;;;;;;;62.35;31.42;;;7.60;95.40;;;;;;4979323;28;20561;-55
2022/03/26 00:19:14;;;;;;;62.38;32.33;;;7.60;95.60;;;;;;4966429;28;20089;-54
2022/03/26 00:21:42;;;;;;;59.97;29.42;;;7.50;95.50;;;;;;4984954;28;20050;-54
2022/03/26 00:24:08;;;;;;;58.40;31.02;;;7.40;95.70;;;;;;4961385;28;20114;-55
2022/03/26 00:26:35;;;;;;;60.75;31.08;;;7.20;95.90;;;;;;4976848;28;20148;-56
2022/03/26 00:29:02;;;;;;;65.53;33.10;;;7.20;96.00;;;;;;4985239;28;20108;-57
2022/03/26 00:31:30;;;;;;;69.35;32.15;;;7.20;96.30;;;;;;4980142;28;20046;-57
2022/03/26 00:33:57;;;;;;;61.50;30.05;;;7.10;96.40;;;;;;4987353;28;20068;-55
2022/03/26 00:36:23;;;;;;;69.22;33.22;;;7.10;96.40;;;;;;4982781;28;20081;-53
2022/03/26 00:38:50;;;;;;;72.65;33.85;;;7.20;96.40;;;;;;4987045;28;20042;-58
2022/03/26 00:41:17;;;;;;;64.38;32.25;;;7.10;96.40;;;;;;4976320;28;20058;-57
2022/03/26 00:43:44;;;;;;;60.58;31.98;;;7.10;96.40;;;;;;4980680;28;20050;-56
2022/03/26 00:46:11;;;;;;;74.47;35.10;;;7.10;96.40;;;;;;4978282;28;20039;-52
2022/03/26 00:48:41;;;;;;;63.55;31.15;;;7.10;96.40;;;;;;4955593;28;20043;-54
2022/03/26 00:51:09;;;;;;;55.83;30.73;;;7.10;96.70;;;;;;4971563;28;20058;-54
2022/03/26 00:53:35;;;;;;;71.70;34.55;;;7.00;96.40;;;;;;4972201;28;20127;-55
2022/03/26 00:56:04;;;;;;;67.85;32.72;;;7.00;96.50;;;;;;4983342;28;20102;-53
2022/03/26 00:58:31;;;;;;;67.38;32.90;;;7.00;96.60;;;;;;4986329;28;20054;-56
2022/03/26 01:00:58;;;;;;;72.50;31.48;;;7.00;96.60;;;;;;4983677;28;20074;-55
2022/03/26 01:03:25;;;;;;;58.65;29.75;;;7.00;96.60;;;;;;4972229;28;20078;-53
2022/03/26 01:05:52;;;;;;;71.22;32.70;;;6.90;96.70;;;;;;4981156;28;20045;-56
2022/03/26 01:08:18;;;;;;;56.22;29.77;;;6.90;96.80;;;;;;4974252;28;20042;-59
2022/03/26 01:10:46;;;;;;;65.22;30.80;;;6.90;96.90;;;;;;4980248;28;20086;-56
2022/03/26 01:13:13;;;;;;;60.47;28.92;;;6.80;97.00;;;;;;4981940;28;20061;-55
2022/03/26 01:15:40;;;;;;;66.18;31.00;;;6.80;97.10;;;;;;4988393;28;20090;-55
2022/03/26 01:18:07;;;;;;;63.30;32.53;;;6.80;97.10;;;;;;4964224;28;20408;-56
2022/03/26 01:20:34;;;;;;;65.50;28.63;;;6.70;97.10;;;;;;4980650;28;20131;-58
2022/03/26 01:23:01;;;;;;;58.22;30.30;;;6.70;97.20;;;;;;4978017;28;20054;-57
2022/03/26 01:25:27;;;;;;;57.85;28.83;;;6.60;97.20;;;;;;4991809;28;20039;-56
2022/03/26 01:27:54;;;;;;;66.07;31.27;;;6.50;97.50;;;;;;4989094;28;20061;-58
2022/03/26 01:30:21;;;;;;;62.65;31.77;;;6.50;97.50;;;;;;4983729;28;20716;-57
2022/03/26 01:32:49;;;;;;;67.75;32.03;;;6.40;97.60;;;;;;4988605;28;20086;-55
2022/03/26 01:35:15;;;;;;;56.55;28.23;;;6.40;97.70;;;;;;4983350;28;20050;-55
2022/03/26 01:37:42;;;;;;;58.85;29.65;;;6.40;97.70;;;;;;4988157;28;20046;-56
2022/03/26 01:40:09;;;;;;;61.42;30.58;;;6.40;97.70;;;;;;4982967;28;20512;-55
2022/03/26 01:42:36;;;;;;;61.95;30.10;;;6.30;97.80;;;;;;4987202;28;20504;-53
2022/03/26 01:45:03;;;;;;;61.08;31.98;;;6.30;97.90;;;;;;4973563;28;20568;-57
2022/03/26 01:47:30;;;;;;;70.90;31.27;;;6.30;97.90;;;;;;4974255;28;20101;-57
2022/03/26 01:49:57;;;;;;;72.38;30.60;;;6.30;97.90;;;;;;4984257;28;20081;-55
2022/03/26 01:52:24;;;;;;;60.85;29.65;;;6.20;97.90;;;;;;4972741;28;20055;-56
2022/03/26 01:54:51;;;;;;;61.25;29.88;;;6.20;98.00;;;;;;4985275;28;20042;-56
2022/03/26 01:57:17;;;;;;;63.28;30.75;;;6.20;98.00;;;;;;4965761;28;20494;-56
2022/03/26 01:59:44;;;;;;;67.38;30.10;;;6.10;98.00;;;;;;4973244;28;20053;-57
2022/03/26 02:02:11;;;;;;;61.35;27.88;;;6.10;98.10;;;;;;4990916;28;20069;-53
2022/03/26 02:04:38;;;;;;;64.50;29.63;;;6.00;98.30;;;;;;4984709;28;20655;-57
2022/03/26 02:07:05;;;;;;;65.20;29.50;;;6.00;98.20;;;;;;4979809;28;20051;-52
2022/03/26 02:09:37;;;;;;;61.40;28.42;;;6.00;98.10;;;;;;4979335;28;20081;-56
2022/03/26 02:12:23;;;;;;;60.92;29.88;;;6.10;98.10;;;;;;4989727;28;20085;-55
2022/03/26 02:14:50;;;;;;;64.93;30.55;;;6.00;98.80;;;;;;4977425;28;20051;-56
2022/03/26 02:17:17;;;;;;;61.10;29.63;;;6.00;98.10;;;;;;4990388;28;20046;-56
2022/03/26 02:19:54;;;;;;;53.22;26.65;;;6.00;98.00;;;;;;4986391;28;20050;-54
2022/03/26 02:22:21;;;;;;;58.00;29.48;;;5.90;98.30;;;;;;4979488;28;20058;-56
2022/03/26 02:24:48;;;;;;;58.95;27.75;;;5.90;98.10;;;;;;4975530;28;20051;-55
2022/03/26 02:27:18;;;;;;;56.13;27.63;;;5.90;98.50;;;;;;4982588;28;20073;-55
2022/03/26 02:29:45;;;;;;;63.83;29.02;;;5.90;98.30;;;;;;4988168;28;20061;-53
2022/03/26 02:32:12;;;;;;;62.28;28.17;;;5.80;98.50;;;;;;4634288;28;10000417;-56
2022/03/26 02:34:39;;;;;;;64.55;28.42;;;5.70;99.10;;;;;;4974980;28;20061;-57
2022/03/26 02:37:26;;;;;;;61.13;28.05;;;5.60;98.50;;;;;;4978433;28;20042;-55
2022/03/26 02:39:52;;;;;;;62.97;27.27;;;5.60;98.60;;;;;;4986670;28;20460;-55
2022/03/26 02:42:19;;;;;;;56.47;26.55;;;5.60;98.70;;;;;;4981857;28;20093;-55
2022/03/26 02:44:46;;;;;;;58.88;25.33;;;5.50;98.70;;;;;;4967287;28;20077;-55
2022/03/26 02:47:13;;;;;;;58.42;27.45;;;5.50;98.80;;;;;;4980103;28;20404;-54
2022/03/26 02:49:40;;;;;;;64.35;27.63;;;5.40;98.70;;;;;;4989050;28;20046;-50
2022/03/26 02:52:07;;;;;;;53.13;25.90;;;5.40;98.80;;;;;;4969019;28;20054;-55
2022/03/26 02:54:34;;;;;;;46.72;23.52;;;5.50;98.80;;;;;;4979887;28;20085;-55
2022/03/26 02:57:01;;;;;;;52.97;26.75;;;5.40;98.80;;;;;;4979247;28;20088;-53
2022/03/26 02:59:28;;;;;;;57.22;26.80;;;5.30;99.10;;;;;;4981656;28;20491;-56
2022/03/26 03:01:55;;;;;;;61.33;26.33;;;5.40;98.90;;;;;;4981691;28;20043;-57
2022/03/26 03:04:22;;;;;;;62.00;27.60;;;5.30;98.90;;;;;;4987030;28;20042;-55
2022/03/26 03:06:49;;;;;;;54.10;26.00;;;5.30;99.20;;;;;;4982056;28;20094;-54
2022/03/26 03:09:16;;;;;;;56.63;27.75;;;5.30;99.20;;;;;;4985245;28;20054;-52
2022/03/26 03:11:43;;;;;;;55.35;26.35;;;5.30;99.30;;;;;;4983922;28;20055;-56
2022/03/26 03:14:10;;;;;;;57.92;26.02;;;5.30;99.30;;;;;;4983472;28;20050;-56
2022/03/26 03:16:37;;;;;;;56.35;29.67;;;5.20;99.20;;;;;;4984687;28;20053;-53
2022/03/26 03:19:04;;;;;;;53.60;25.15;;;5.20;99.40;;;;;;4983697;28;20046;-56
2022/03/26 03:21:32;;;;;;;54.80;25.35;;;5.20;99.40;;;;;;4985225;28;20096;-55
2022/03/26 03:23:58;;;;;;;53.28;25.65;;;5.20;99.40;;;;;;4981145;28;20101;-53
2022/03/26 03:26:25;;;;;;;52.00;25.73;;;5.20;99.40;;;;;;4984620;28;20038;-53
2022/03/26 03:28:52;;;;;;;64.70;28.52;;;5.30;99.30;;;;;;4986010;28;20485;-52
2022/03/26 03:31:19;;;;;;;68.10;31.23;;;5.20;99.30;;;;;;4986700;28;20066;-54
2022/03/26 03:33:46;;;;;;;59.25;27.90;;;5.20;99.60;;;;;;4985594;28;20469;-53
2022/03/26 03:36:13;;;;;;;63.10;28.38;;;5.20;99.60;;;;;;4986708;28;20093;-53
2022/03/26 03:38:40;;;;;;;65.38;27.33;;;5.20;99.60;;;;;;4988974;28;20054;-55
2022/03/26 03:41:07;;;;;;;64.78;29.65;;;5.10;99.50;;;;;;4964599;28;20540;-54
2022/03/26 03:43:34;;;;;;;59.67;28.77;;;5.10;99.60;;;;;;4983566;28;20073;-55
2022/03/26 03:46:01;;;;;;;51.95;27.13;;;5.10;99.60;;;;;;4987389;28;20046;-55
2022/03/26 03:48:28;;;;;;;62.17;29.33;;;5.00;99.70;;;;;;4982516;28;20158;-55
2022/03/26 03:50:55;;;;;;;62.58;28.00;;;5.00;99.90;;;;;;4989016;28;20102;-56
2022/03/26 03:53:22;;;;;;;59.95;26.27;;;4.90;99.90;;;;;;4976775;28;20200;-56
2022/03/26 03:55:48;;;;;;;65.53;29.02;;;4.90;99.90;;;;;;4988513;28;20445;-55
2022/03/26 03:58:15;;;;;;;59.10;28.52;;;4.90;99.90;;;;;;4962901;28;20497;-57
2022/03/26 04:00:42;;;;;;;63.10;30.50;;;4.90;99.90;;;;;;4978206;28;20051;-55
2022/03/26 04:03:09;;;;;;;62.30;27.08;;;4.90;99.90;;;;;;4973973;28;20095;-57
2022/03/26 04:05:40;;;;;;;61.67;26.77;;;4.90;99.90;;;;;;4982358;28;20073;-58
2022/03/26 04:08:07;;;;;;;52.30;27.05;;;4.90;99.90;;;;;;4985027;28;20096;-55
2022/03/26 04:10:34;;;;;;;63.35;29.27;;;4.90;99.90;;;;;;4974079;28;20051;-58
2022/03/26 04:13:01;;;;;;;64.28;28.42;;;4.90;99.90;;;;;;4974522;28;20051;-55
2022/03/26 04:15:28;;;;;;;58.97;27.48;;;4.90;99.90;;;;;;4969086;28;20042;-56
2022/03/26 04:17:55;;;;;;;55.40;26.13;;;4.80;99.90;;;;;;4984537;28;20101;-54
2022/03/26 04:20:22;;;;;;;64.10;28.67;;;4.60;99.90;;;;;;4980395;28;20096;-54
2022/03/26 04:22:49;;;;;;;62.50;30.70;;;4.70;99.90;;;;;;4985877;28;20077;-55
2022/03/26 04:25:15;;;;;;;57.75;27.45;;;4.70;99.90;;;;;;4987087;28;20077;-55
2022/03/26 04:27:43;;;;;;;60.15;29.42;;;4.70;99.90;;;;;;4978990;28;20530;-55
2022/03/26 04:30:11;;;;;;;67.40;26.75;;;4.70;99.90;;;;;;4977588;28;20066;-55
2022/03/26 04:32:38;;;;;;;66.95;28.73;;;4.60;99.90;;;;;;4979502;28;20201;-59
2022/03/26 04:35:05;;;;;;;62.30;27.30;;;4.60;99.90;;;;;;4967508;28;20061;-55
2022/03/26 04:37:34;;;;;;;60.08;28.48;;;4.50;99.90;;;;;;4987274;28;20050;-54
2022/03/26 04:40:01;;;;;;;65.70;28.83;;;4.50;99.90;;;;;;4985185;28;20050;-55
2022/03/26 04:42:28;;;;;;;55.38;25.40;;;4.60;99.90;;;;;;4980387;28;20053;-50
2022/03/26 04:44:55;;;;;;;69.25;28.23;;;4.60;99.90;;;;;;4974395;28;20328;-48
2022/03/26 04:47:22;;;;;;;65.03;27.88;;;4.60;99.90;;;;;;4983587;28;20042;-50
2022/03/26 04:49:48;;;;;;;63.53;27.17;;;4.50;99.90;;;;;;4979630;28;20154;-53
2022/03/26 04:52:16;;;;;;;64.95;27.95;;;4.50;99.90;;;;;;4987974;28;20050;-56
2022/03/26 04:54:43;;;;;;;62.20;28.02;;;4.50;99.90;;;;;;4987552;28;20055;-52
2022/03/26 04:57:10;;;;;;;61.30;27.77;;;4.50;99.90;;;;;;4970235;28;20074;-56
2022/03/26 04:59:37;;;;;;;58.95;27.08;;;4.40;99.90;;;;;;4972535;28;20540;-55
2022/03/26 05:02:04;;;;;;;55.85;27.50;;;4.40;99.90;;;;;;4979915;28;20097;-55
2022/03/26 05:04:31;;;;;;;62.08;28.48;;;4.40;99.90;;;;;;4983247;28;20464;-55
2022/03/26 05:06:57;;;;;;;60.70;27.83;;;4.40;99.90;;;;;;4987045;28;20046;-54
2022/03/26 05:09:24;;;;;;;72.70;30.35;;;4.40;99.90;;;;;;4978643;28;20134;-54
2022/03/26 05:11:51;;;;;;;66.00;28.70;;;4.30;99.90;;;;;;4978380;28;20055;-53
2022/03/26 05:14:18;;;;;;;61.35;27.48;;;4.30;99.90;;;;;;4977248;28;20093;-50
2022/03/26 05:16:45;;;;;;;67.50;29.52;;;4.30;99.90;;;;;;4978452;28;20481;-56
2022/03/26 05:19:11;;;;;;;60.85;27.40;;;4.20;99.90;;;;;;4978798;28;20085;-54
2022/03/26 05:21:38;;;;;;;63.42;28.55;;;4.20;99.90;;;;;;4959653;28;20046;-54
2022/03/26 05:24:05;;;;;;;59.35;28.02;;;4.30;99.90;;;;;;4985466;28;20128;-53
2022/03/26 05:26:32;;;;;;;58.03;26.90;;;4.20;99.90;;;;;;4975889;28;20046;-52
2022/03/26 05:29:00;;;;;;;57.50;28.55;;;4.20;99.90;;;;;;4986498;28;20112;-53
2022/03/26 05:31:30;;;;;;;66.95;28.40;;;4.10;99.90;;;;;;4981017;28;20075;-54
2022/03/26 05:33:58;;;;;;;61.35;28.05;;;4.20;99.90;;;;;;4987212;28;20044;-56
2022/03/26 05:36:26;;;;;;;72.45;28.77;;;4.10;99.90;;;;;;4978747;28;20055;-55
2022/03/26 05:38:52;;;;;;;69.50;30.25;;;4.10;99.90;;;;;;4975677;28;20097;-53
2022/03/26 05:41:19;;;;;;;66.32;27.60;;;4.10;99.90;;;;;;4983457;28;20050;-56
2022/03/26 05:43:48;;;;;;;74.05;30.63;;;4.00;99.90;;;;;;4979495;28;20124;-54
2022/03/26 05:46:15;;;;;;;59.25;28.35;;;4.00;99.90;;;;;;4980646;28;20050;-55
2022/03/26 05:48:42;;;;;;;70.68;28.33;;;4.70;99.90;;;;;;4978556;28;20084;-55
2022/03/26 05:51:09;;;;;;;59.65;25.70;;;4.20;99.90;;;;;;4979121;28;20445;-53
2022/03/26 05:53:36;;;;;;;74.80;29.33;;;4.20;99.90;;;;;;4989977;28;20066;-54
2022/03/26 05:56:03;;;;;;;67.00;29.17;;;4.20;99.90;;;;;;4989235;28;20085;-54
2022/03/26 05:58:30;;;;;;;61.30;28.25;;;4.20;99.90;;;;;;4989698;28;20457;-55
2022/03/26 06:00:57;;;;;;;55.53;25.73;;;4.10;99.90;;;;;;4987210;28;20066;-55
2022/03/26 06:03:24;;;;;;;63.55;28.92;;;4.10;99.90;;;;;;4978448;28;20046;-52
2022/03/26 06:05:51;;;;;;;69.00;28.10;;;4.10;99.90;;;;;;4988480;28;20050;-57
2022/03/26 06:08:18;;;;;;;65.72;28.05;;;4.00;99.90;;;;;;4971198;28;20493;-56
2022/03/26 06:10:45;;;;;;;64.97;29.27;;;4.00;99.90;;;;;;4990209;28;20054;-54
2022/03/26 06:13:11;;;;;;;64.57;29.55;;;4.10;99.90;;;;;;4978654;28;20090;-56
2022/03/26 06:15:38;;;;;;;67.50;28.70;;;4.10;99.90;;;;;;4990418;28;20134;-54
2022/03/26 06:18:11;;;;;;;57.20;27.63;;;4.10;99.90;;;;;;4979133;28;20058;-56
2022/03/26 06:20:38;;;;;;;66.43;27.98;;;4.10;99.90;;;;;;4971054;28;20047;-56
2022/03/26 06:23:05;;;;;;;60.33;27.88;;;4.10;99.90;;;;;;4972060;28;20046;-55
2022/03/26 06:25:32;;;;;;;66.57;29.17;;;4.10;99.90;;;;;;4976764;28;20050;-56
2022/03/26 06:27:59;;;;;;;65.47;29.98;;;4.10;99.90;;;;;;4979995;28;20050;-55
2022/03/26 06:30:26;;;;;;;76.97;32.65;;;4.10;99.90;;;;;;4988871;28;20112;-53
2022/03/26 06:32:52;;;;;;;83.38;35.25;;;4.20;99.90;;;;;;4987677;28;20453;-55
2022/03/26 06:35:19;;;;;;;66.30;31.63;;;4.20;99.90;;;;;;4988374;28;20555;-54
2022/03/26 06:37:46;;;;;;;85.88;35.15;;;4.20;99.90;;;;;;4986205;28;20050;-56
2022/03/26 06:40:13;;;;;;;69.68;31.40;;;4.10;99.90;;;;;;4982766;28;20607;-55
2022/03/26 06:42:40;;;;;;;79.30;33.10;;;4.40;99.90;;;;;;4971919;28;20077;-56
2022/03/26 06:45:07;;;;;;;67.63;31.75;;;4.10;99.90;;;;;;4987791;28;20489;-55
2022/03/26 06:47:33;;;;;;;78.75;32.70;;;4.20;99.90;;;;;;4988539;28;20074;-56
2022/03/26 06:50:00;;;;;;;86.15;33.78;;;4.20;99.90;;;;;;4984721;28;20498;-57
2022/03/26 06:52:27;;;;;;;84.25;32.05;;;4.30;99.90;;;;;;4976146;28;20409;-54
2022/03/26 06:54:54;;;;;;;75.55;30.73;;;4.30;99.90;;;;;;4980932;28;20583;-54
2022/03/26 06:57:21;;;;;;;70.18;32.40;;;4.40;99.90;;;;;;4985526;28;20183;-53
2022/03/26 06:59:47;;;;;;;72.28;31.35;;;4.50;99.90;;;;;;4970898;28;20077;-55
2022/03/26 07:02:14;;;;;;;82.40;32.20;;;4.50;99.90;;;;;;4989910;28;20053;-56
2022/03/26 07:04:41;;;;;;;75.85;31.70;;;4.50;99.90;;;;;;4983061;28;20417;-54
2022/03/26 07:07:11;;;;;;;72.88;31.92;;;4.60;99.90;;;;;;4979139;28;20053;-56
2022/03/26 07:09:38;;;;;;;81.78;34.13;;;4.60;99.90;;;;;;4985422;28;20114;-56
2022/03/26 07:12:05;;;;;;;82.47;35.58;;;4.70;99.90;;;;;;4980409;28;20094;-55
2022/03/26 07:14:32;;;;;;;92.07;34.90;;;4.80;99.90;;;;;;4981173;28;20042;-55
2022/03/26 07:16:59;;;;;;;83.35;35.45;;;4.90;99.90;;;;;;4974707;28;20537;-55
2022/03/26 07:19:26;;;;;;;80.03;32.72;;;5.00;99.90;;;;;;4982102;28;20050;-53
2022/03/26 07:21:52;;;;;;;86.65;36.05;;;5.00;99.90;;;;;;4985404;28;20042;-56
2022/03/26 07:24:19;;;;;;;82.90;34.80;;;5.10;99.90;;;;;;4984457;28;20077;-54
2022/03/26 07:26:46;;;;;;;86.60;33.75;;;5.10;99.90;;;;;;4974630;28;20085;-55
2022/03/26 07:29:13;;;;;;;96.97;38.22;;;5.20;99.90;;;;;;4978958;28;20054;-53
2022/03/26 07:31:45;;;;;;;86.75;35.20;;;5.30;99.90;;;;;;4982615;28;20050;-56
2022/03/26 07:34:13;;;;;;;78.05;38.28;;;5.40;99.90;;;;;;4987322;28;20089;-55
2022/03/26 07:36:40;;;;;;;88.70;39.95;;;5.40;99.90;;;;;;4981169;28;20058;-55
2022/03/26 07:39:07;;;;;;;88.20;36.35;;;5.50;99.90;;;;;;4978587;28;20098;-54
2022/03/26 07:41:34;;;;;;;83.95;39.28;;;5.60;99.90;;;;;;4982759;28;20086;-52
2022/03/26 07:44:01;;;;;;;78.70;35.35;;;5.80;99.90;;;;;;4973556;28;20077;-53
2022/03/26 07:46:27;;;;;;;91.57;36.03;;;5.90;99.90;;;;;;4977707;28;20090;-56
2022/03/26 07:48:54;;;;;;;83.63;37.20;;;6.00;99.90;;;;;;4980913;28;20046;-55
2022/03/26 07:51:21;;;;;;;81.45;34.42;;;6.10;99.90;;;;;;4980031;28;20046;-54
2022/03/26 07:53:48;;;;;;;90.50;37.20;;;6.10;99.90;;;;;;4979855;28;20046;-55
2022/03/26 07:56:15;;;;;;;89.95;39.55;;;6.30;99.90;;;;;;4973899;28;20078;-57
2022/03/26 07:58:43;;;;;;;88.13;37.08;;;6.40;99.90;;;;;;4635091;28;9999921;-54
2022/03/26 08:01:10;;;;;;;84.07;36.13;;;6.50;99.90;;;;;;4974614;28;20050;-56
2022/03/26 08:03:37;;;;;;;77.25;35.50;;;6.60;99.90;;;;;;4975607;28;20050;-55
2022/03/26 08:06:05;;;;;;;83.25;36.80;;;6.70;99.90;;;;;;4977835;28;20197;-55
2022/03/26 08:08:34;;;;;;;76.35;35.03;;;6.90;99.90;;;;;;4976818;28;20065;-57
2022/03/26 08:11:02;;;;;;;85.45;34.30;;;7.00;99.90;;;;;;4975512;28;20525;-54
2022/03/26 08:13:29;;;;;;;73.35;32.35;;;7.10;99.90;;;;;;4975694;28;20055;-58
2022/03/26 08:15:56;;;;;;;79.10;35.10;;;7.30;99.90;;;;;;4976847;28;20101;-55
2022/03/26 08:18:23;;;;;;;74.43;33.70;;;7.50;99.90;;;;;;4978476;28;20101;-56
2022/03/26 08:20:50;;;;;;;70.10;32.80;;;7.60;99.90;;;;;;4979462;28;20465;-55
2022/03/26 08:23:16;;;;;;;76.63;32.75;;;7.80;99.90;;;;;;4976128;28;20113;-56
2022/03/26 08:28:32;;;;;;;71.32;34.00;;;8.10;99.90;;;;;;4977977;28;20059;-57
2022/03/26 08:30:59;;;;;;;83.45;35.72;;;8.30;99.80;;;;;;4977750;28;20603;-56
2022/03/26 08:33:25;;;;;;;85.18;34.92;;;8.30;99.60;;;;;;4974288;28;20076;-57
2022/03/26 08:35:53;;;;;;;74.80;34.13;;;8.40;99.60;;;;;;4982344;28;20093;-57
2022/03/26 08:38:20;;;;;;;73.43;33.83;;;8.60;99.60;;;;;;4973647;28;20046;-57
2022/03/26 08:40:48;;;;;;;73.95;33.85;;;8.70;99.50;;;;;;4982868;28;20120;-57
2022/03/26 08:43:15;;;;;;;76.45;34.17;;;8.80;99.40;;;;;;4981268;28;20070;-57
2022/03/26 08:45:42;;;;;;;80.65;36.85;;;8.90;99.20;;;;;;4966344;28;20120;-56
2022/03/26 08:48:09;;;;;;;84.35;35.97;;;9.00;99.10;;;;;;4976943;28;20043;-57
2022/03/26 08:50:36;;;;;;;77.85;37.00;;;9.20;99.10;;;;;;4979995;28;20054;-57
2022/03/26 08:53:03;;;;;;;67.75;33.70;;;9.20;99.00;;;;;;4981770;28;20077;-55
2022/03/26 08:55:30;;;;;;;72.88;34.10;;;9.30;98.80;;;;;;4974460;28;20050;-56
2022/03/26 08:57:57;;;;;;;66.75;33.25;;;9.40;98.70;;;;;;4973991;28;20077;-57
2022/03/26 09:00:26;;;;;;;76.35;34.47;;;9.50;98.70;;;;;;4973876;28;20577;-54
2022/03/26 09:02:54;;;;;;;70.03;34.28;;;9.60;98.50;;;;;;4966448;28;20100;-58
2022/03/26 09:05:22;;;;;;;66.35;33.53;;;9.70;98.60;;;;;;4979874;28;20586;-57
2022/03/26 09:07:50;;;;;;;76.70;33.65;;;9.80;98.50;;;;;;4972680;28;20343;-57
2022/03/26 09:10:17;;;;;;;79.63;35.50;;;9.90;98.30;;;;;;4977719;28;20141;-60
2022/03/26 09:12:43;;;;;;;71.53;33.55;;;10.00;98.20;;;;;;4977483;28;20113;-58
2022/03/26 09:15:10;;;;;;;76.63;34.58;;;10.10;98.20;;;;;;4977796;28;20050;-56
2022/03/26 09:17:37;;;;;;;70.75;34.58;;;10.20;98.00;;;;;;4977298;28;20437;-58
2022/03/26 09:20:05;;;;;;;76.18;34.33;;;10.30;97.80;;;;;;4973317;28;20047;-56
2022/03/26 09:22:32;;;;;;;70.28;33.55;;;10.70;97.60;;;;;;4974744;28;20055;-59
2022/03/26 09:25:00;;;;;;;72.30;34.95;;;11.00;97.30;;;;;;4975589;28;20190;-58
2022/03/26 09:27:27;;;;;;;65.07;30.63;;;11.30;97.20;;;;;;4961934;28;20133;-59
2022/03/26 09:29:54;;;;;;;60.70;31.00;;;11.60;96.70;;;;;;4967644;28;20724;-57
2022/03/26 09:32:22;;;;;;;73.57;33.38;;;11.90;96.30;;;;;;4986668;28;20921;-57
2022/03/26 09:34:49;;;;;;;71.93;34.45;;;12.20;96.30;;;;;;4981883;28;20057;-56
2022/03/26 09:37:16;;;;;;;67.18;31.15;;;12.40;95.60;;;;;;4957370;28;20058;-58
2022/03/26 09:39:43;;;;;;;75.90;34.28;;;12.70;95.10;;;;;;4974615;28;20047;-56
2022/03/26 09:42:11;;;;;;;63.83;29.40;;;12.80;94.00;;;;;;4977206;28;20054;-58
2022/03/26 09:44:38;;;;;;;67.07;31.98;;;12.90;94.70;;;;;;4968198;28;20509;-57
2022/03/26 09:47:05;;;;;;;58.05;31.88;;;13.30;94.20;;;;;;4979621;28;20070;-58
2022/03/26 09:49:32;;;;;;;61.78;30.80;;;13.40;93.70;;;;;;4978276;28;20043;-57
2022/03/26 09:51:59;;;;;;;75.55;31.17;;;13.50;93.90;;;;;;4949310;28;20082;-58
2022/03/26 09:54:26;;;;;;;58.22;31.10;;;13.50;94.00;;;;;;4964316;28;20054;-57
2022/03/26 09:56:54;;;;;;;76.85;33.05;;;13.40;93.70;;;;;;4975758;28;20101;-54
2022/03/26 09:59:21;;;;;;;61.88;31.77;;;13.30;93.60;;;;;;4981949;28;20134;-54
2022/03/26 10:01:48;;;;;;;70.90;29.58;;;13.20;93.70;;;;;;4965483;28;20118;-56
2022/03/26 10:04:17;;;;;;;61.75;29.52;;;13.10;93.60;;;;;;4980397;28;20074;-58
2022/03/26 10:06:51;;;;;;;63.83;29.50;;;12.90;92.80;;;;;;4960608;28;20081;-57
2022/03/26 10:09:38;;;;;;;;;;;12.80;93.40;;;;;;4962968;28;20569;-58
2022/03/26 10:12:15;;;;;;;52.35;26.45;;;12.80;92.10;;;;;;4970811;28;20026;-58
2022/03/26 10:14:44;;;;;;;51.08;25.10;;;12.90;93.20;;;;;;4976370;28;20096;-56
2022/03/26 10:17:24;;;;;;;47.00;23.00;;;12.90;93.20;;;;;;4974212;28;20158;-58
2022/03/26 10:19:55;;;;;;;59.00;26.20;;;12.80;92.20;;;;;;4975138;28;20078;-57
2022/03/26 10:22:23;;;;;;;59.97;29.23;;;12.90;93.00;;;;;;4962008;28;20536;-55
2022/03/26 10:24:50;;;;;;;44.45;23.33;;;12.90;92.80;;;;;;4978229;28;20050;-59
2022/03/26 10:27:18;;;;;;;55.80;23.73;;;13.00;92.90;;;;;;4959745;28;20138;-60
2022/03/26 10:29:55;;;;;;;51.95;24.25;;;13.00;93.00;;;;;;4971737;28;20078;-56
2022/03/26 10:32:41;;;;;;;43.03;23.35;;;13.10;92.50;;;;;;4977994;28;20081;-57
2022/03/26 10:35:14;;;;;;;48.40;23.23;;;13.10;92.10;;;;;;4959499;28;20062;-56
2022/03/26 10:37:51;;;;;;;48.88;23.77;;;13.10;92.50;;;;;;4963542;28;20159;-57
2022/03/26 10:40:29;;;;;;;37.15;18.77;;;13.20;92.20;;;;;;4972583;28;20097;-58
2022/03/26 10:43:10;;;;;;;62.47;23.10;;;13.30;91.00;;;;;;4970368;28;20061;-56
2022/03/26 10:45:45;;;;;;;46.78;22.10;;;13.30;91.90;;;;;;4978962;28;20081;-57
2022/03/26 10:48:12;;;;;;;46.58;22.52;;;13.30;91.80;;;;;;4973697;28;20050;-58
2022/03/26 10:50:39;;;;;;;47.72;22.83;;;13.30;92.50;;;;;;4975498;28;20050;-60
2022/03/26 10:53:13;;;;;;;44.38;19.40;;;13.40;91.90;;;;;;4966282;28;20101;-56
2022/03/26 10:55:40;;;;;;;47.97;19.58;;;13.40;91.20;;;;;;4979499;28;20054;-58
2022/03/26 10:58:07;;;;;;;46.38;19.60;;;13.50;91.90;;;;;;4981989;28;20506;-57
2022/03/26 11:00:34;;;;;;;43.72;19.73;;;13.60;92.00;;;;;;4962654;28;20051;-54
2022/03/26 11:03:01;;;;;;;44.40;19.42;;;13.70;91.50;;;;;;4979825;28;20462;-57
2022/03/26 11:05:29;;;;;;;42.72;20.90;;;13.70;91.60;;;;;;4979304;28;20050;-55
2022/03/26 11:07:57;;;;;;;41.92;19.63;;;13.80;92.00;;;;;;4973029;28;20055;-55
2022/03/26 11:10:25;;;;;;;39.10;18.23;;;13.90;91.60;;;;;;4950355;28;20058;-55
2022/03/26 11:12:53;;;;;;;40.03;20.13;;;13.90;90.80;;;;;;4966281;28;20149;-57
2022/03/26 11:15:21;;;;;;;33.55;15.55;;;14.00;91.20;;;;;;4963064;28;20085;-56
2022/03/26 11:18:09;;;;;;;39.97;17.85;;;14.00;91.20;;;;;;4976395;28;20046;-60
2022/03/26 11:21:09;;;;;;;31.30;17.15;;;14.10;90.80;;;;;;4975527;28;20090;-57
2022/03/26 11:24:04;;;;;;;29.40;15.40;;;14.10;90.10;;;;;;4977929;28;20055;-59
2022/03/26 11:26:52;;;;;;;28.30;15.02;;;14.20;90.40;;;;;;4979923;28;20591;-59
2022/03/26 11:29:31;;;;;;;37.03;15.00;;;14.30;90.10;;;;;;4973334;28;20061;-58
2022/03/26 11:32:11;;;;;;;30.02;12.88;;;14.30;90.30;;;;;;4980169;28;20050;-58
2022/03/26 11:34:38;;;;;;;21.08;12.00;;;14.40;90.30;;;;;;4973450;28;20055;-59
2022/03/26 11:37:20;;;;;;;32.72;13.55;;;14.50;90.50;;;;;;4967179;28;20050;-57
2022/03/26 11:39:49;;;;;;;27.70;12.15;;;14.50;88.70;;;;;;4970185;28;20607;-57
2022/03/26 11:42:22;;;;;;;35.28;13.55;;;14.50;90.10;;;;;;4982414;28;20051;-58
2022/03/26 11:50:42;;;;;;;25.77;12.43;;;14.80;89.00;;;;;;4974183;28;20148;-58
2022/03/26 11:53:09;;;;;;;23.00;12.43;;;14.90;90.10;;;;;;4979286;28;20114;-57
2022/03/26 11:55:49;;;;;;;34.90;11.88;;;14.90;90.00;;;;;;4964230;28;20055;-58
2022/03/26 11:58:21;;;;;;;23.63;10.75;;;15.00;87.20;;;;;;4981662;28;20050;-57
2022/03/26 12:01:09;;;;;;;22.80;9.93;;;15.00;89.60;;;;;;4963552;28;20100;-58
2022/03/26 12:03:42;;;;;;;28.90;10.68;;;15.10;87.80;;;;;;4976542;28;20887;-58
2022/03/26 12:08:56;;;;;;;25.38;10.48;;;15.10;88.90;;;;;;4971241;28;20059;-56
2022/03/26 12:11:33;;;;;;;24.17;10.10;;;15.20;88.30;;;;;;4978667;28;20228;-58
2022/03/26 12:14:04;;;;;;;21.95;10.18;;;15.20;87.50;;;;;;4980215;28;20050;-58
2022/03/26 12:17:07;;;;;;;28.70;8.30;;;15.30;88.80;;;;;;4984441;28;20073;-56
2022/03/26 12:19:46;;;;;;;25.02;8.68;;;15.30;86.50;;;;;;4892609;29;20583;-58
2022/03/26 12:22:26;;;;;;;24.30;9.57;;;15.30;87.20;;;;;;4964185;28;20756;-58
2022/03/26 12:24:56;;;;;;;20.30;7.47;;;15.40;86.20;;;;;;4978161;28;20046;-56
2022/03/26 12:27:24;;;;;;;24.27;8.45;;;15.30;87.70;;;;;;4953768;28;20133;-58
2022/03/26 12:29:55;;;;;;;22.40;7.70;;;15.40;88.20;;;;;;4969189;28;20058;-59
2022/03/26 12:32:21;;;;;;;19.83;8.95;;;15.50;87.90;;;;;;4974068;28;20046;-57
2022/03/26 12:34:55;;;;;;;14.98;7.97;;;15.50;87.70;;;;;;4966122;28;20073;-59
2022/03/26 12:37:23;;;;;;;20.20;7.25;;;15.60;87.50;;;;;;4975014;28;20063;-57
2022/03/26 12:39:50;;;;;;;18.20;7.78;;;15.60;87.80;;;;;;4966930;28;20074;-59
2022/03/26 12:42:17;;;;;;;18.00;8.10;;;15.60;86.80;;;;;;4976426;28;20082;-57
2022/03/26 12:44:45;;;;;;;20.55;8.13;;;15.70;87.50;;;;;;4971167;28;20051;-57
2022/03/26 12:47:22;;;;;;;28.50;10.85;;;15.70;87.10;;;;;;4963688;28;20105;-58
2022/03/26 12:49:49;;;;;;;18.65;7.97;;;15.60;85.20;;;;;;4971907;28;20058;-57
2022/03/26 12:52:17;;;;;;;18.27;7.65;;;15.70;85.30;;;;;;4971717;28;20609;-59
2022/03/26 12:54:53;;;;;;;19.40;7.43;;;15.70;86.10;;;;;;4983346;28;20504;-57